Terminal Aerodrome Forecast
Issued by NWS Boston, MA

Current Version | Previous Version | Text Only | Print | Product List | Glossary On
Versions: 1 2 3 4 5 6 7 8 9 10 11 12 13 14 15 16 17 18 19 20 21 22 23
000 FTUS41 KBOX 312320 TAFBOS TAF KBOS 312320Z 0100/0206 06010KT P6SM OVC050 FM010900 02013G21KT P6SM OVC050 FM011200 02013G23KT P6SM -SHRA OVC015 FM011800 03017G32KT 3SM SHRA OVC008 FM012200 01020G41KT 3SM -SHRA OVC015=

USA.gov is the U.S. government's official web portal to all federal, state and local government web resources and services.